Shen Hang 935 — BXGY — position and weather

sailwx.info

Track history (hours):
 
Tides and Currents Weather Stations Pressure Air Temp Water Temp Dewpoint Dewpoint Depression Visibility Wind Speed Wind Dir Waves Ship Positions

Shen Hang 935

Last reported at 2014-Sep-01 13:29 UTC. Time now 2014-Sep-01 18:42 UTC.
Position N 22°25' E 113°53'.

Length 49 m; draft 2.6 m.

Type: Ship. MMSI: 412466550.

Date/timePositionNaut miles runAvg speedWind from/ knotsBaromVisibWave heightAir tempDewpointWater temp
2014-Sep-01 13:29N 22°25' E 113°53'15 0.7
2014-Aug-31 16:05N 22°18' E 114°07'0 0.1
2014-Aug-31 15:16N 22°18' E 114°08'53 1.5
2014-Aug-30 04:33N 22°59' E 113°31'5 4.8
2014-Aug-30 03:33N 23°04' E 113°29'3 2.5
2014-Aug-30 02:33N 23°06' E 113°27'0 0.1
2014-Aug-30 01:33N 23°06' E 113°27'0 0.0
2014-Aug-30 00:33N 23°06' E 113°27'0 0.0
2014-Aug-29 20:16N 23°05' E 113°27'0 0.1
2014-Aug-29 14:33N 23°05' E 113°28'6 6.0
2014-Aug-29 13:33N 23°00' E 113°31'39 5.4
2014-Aug-29 06:17N 22°27' E 113°53'1 1.9
2014-Aug-29 05:33N 22°28' E 113°54'0 0.1
2014-Aug-29 04:33N 22°28' E 113°54'0 0.1
2014-Aug-29 03:33N 22°28' E 113°54'0 0.1
2014-Aug-29 02:33N 22°28' E 113°54'1 0.6
2014-Aug-29 01:33N 22°27' E 113°54'1 0.7
2014-Aug-29 00:30N 22°27' E 113°53'0 0.0
2014-Aug-28 23:33N 22°27' E 113°53'0 0.0
2014-Aug-28 22:29N 22°27' E 113°53'0 0.0
2014-Aug-28 21:33N 22°27' E 113°53'0 0.0
2014-Aug-28 20:33N 22°27' E 113°53'0 0.0
2014-Aug-28 19:30N 22°27' E 113°53'2 0.6
2014-Aug-28 16:22N 22°25' E 113°53'37 3.4
2014-Aug-28 05:30N 22°57' E 113°33'5 4.9
2014-Aug-28 04:29N 23°02' E 113°31'4 4.4
2014-Aug-28 03:33N 23°05' E 113°28'2 2.3
2014-Aug-28 02:28N 23°06' E 113°26'0 0.0
2014-Aug-28 01:32N 23°06' E 113°26'0 0.1
2014-Aug-28 00:29N 23°06' E 113°26'0 0.0
2014-Aug-27 23:32N 23°06' E 113°26'0 0.0
2014-Aug-27 22:33N 23°06' E 113°26'0 0.1
2014-Aug-27 21:33N 23°06' E 113°26'0 0.0
2014-Aug-27 20:33N 23°06' E 113°26'0 0.0
2014-Aug-27 19:31N 23°06' E 113°26'0 0.0
2014-Aug-27 18:27N 23°06' E 113°26'0 0.0
2014-Aug-27 17:33N 23°06' E 113°26'0 0.0
2014-Aug-27 16:33N 23°06' E 113°26'0 0.1
2014-Aug-27 15:30N 23°06' E 113°26'0 0.1
2014-Aug-27 14:33N 23°06' E 113°26'0 0.0
2014-Aug-27 13:32N 23°06' E 113°26'0 0.0
2014-Aug-27 12:33N 23°06' E 113°26'0 0.0
2014-Aug-27 11:33N 23°06' E 113°26'0 0.1
2014-Aug-27 10:33N 23°06' E 113°26'0 0.0
2014-Aug-27 09:33N 23°06' E 113°26'1 0.8
2014-Aug-27 08:33N 23°05' E 113°26'0 0.0
2014-Aug-27 07:33N 23°05' E 113°26'0 0.0
2014-Aug-27 06:33N 23°05' E 113°26'0 0.0
2014-Aug-27 05:33N 23°05' E 113°26'0 0.0
2014-Aug-27 04:33N 23°05' E 113°26'0 0.0
2014-Aug-27 03:32N 23°05' E 113°26'0 0.0
2014-Aug-27 02:33N 23°05' E 113°26'0 0.0
2014-Aug-27 01:33N 23°05' E 113°26'0 0.1
2014-Aug-27 00:33N 23°05' E 113°26'0 0.0
2014-Aug-26 23:33N 23°05' E 113°26'0 0.0
2014-Aug-26 22:33N 23°05' E 113°26'0 0.0
2014-Aug-26 21:32N 23°05' E 113°26'0 0.0
2014-Aug-26 20:32N 23°05' E 113°26'0 0.0
2014-Aug-26 19:31N 23°05' E 113°26'0 0.0
2014-Aug-26 18:33N 23°05' E 113°26'0 0.1
2014-Aug-26 17:29N 23°05' E 113°26'0 0.1
2014-Aug-26 16:34N 23°05' E 113°26'5 4.8
2014-Aug-26 15:28N 23°03' E 113°32'0 0.1
2014-Aug-26 10:31N 23°03' E 113°32'0 0.0
2014-Aug-26 09:15N 23°03' E 113°32'1 0.1
2014-Aug-26 01:32N 23°03' E 113°31'0 0.5
2014-Aug-26 00:33N 23°03' E 113°31'0 0.0
2014-Aug-25 23:33N 23°03' E 113°31'0 0.0
2014-Aug-25 22:33N 23°03' E 113°31'0 0.0
2014-Aug-25 21:33N 23°03' E 113°31'0 0.0
2014-Aug-25 20:33N 23°03' E 113°31'0 0.0
2014-Aug-25 19:30N 23°03' E 113°31'0 0.2
2014-Aug-25 18:24N 23°03' E 113°31'0 0.0
2014-Aug-25 17:34N 23°03' E 113°31'0 0.1
2014-Aug-25 14:10N 23°03' E 113°31'5 7.3
2014-Aug-25 13:33N 22°58' E 113°32'37 5.9
2014-Aug-25 07:11N 22°26' E 113°53'22 0.8
2014-Aug-24 03:33N 22°34' E 114°15'0 0.1
2014-Aug-24 02:33N 22°34' E 114°15'0 0.0
2014-Aug-23 20:25N 22°34' E 114°15'0 0.0
2014-Aug-23 19:09N 22°34' E 114°15'17 0.6
2014-Aug-22 14:32N 22°18' E 114°10'  
Track history (hours):
 
Tides and Currents Weather Stations Pressure Air Temp Water Temp Dewpoint Dewpoint Depression Visibility Wind Speed Wind Dir Waves Ship Positions

Shen Hang 935

Last reported at 2014-Sep-01 13:29 UTC. Time now 2014-Sep-01 18:42 UTC.
Position N 22°25' E 113°53'.

Length 49 m; draft 2.6 m.

Type: Ship. MMSI: 412466550.

Date/timePositionNaut miles runAvg speedWind from/ knotsBaromVisibWave heightAir tempDewpointWater temp
2014-Sep-01 13:29N 22°25' E 113°53'15 0.7
2014-Aug-31 16:05N 22°18' E 114°07'0 0.1
2014-Aug-31 15:16N 22°18' E 114°08'53 1.5
2014-Aug-30 04:33N 22°59' E 113°31'5 4.8
2014-Aug-30 03:33N 23°04' E 113°29'3 2.5
2014-Aug-30 02:33N 23°06' E 113°27'0 0.1
2014-Aug-30 01:33N 23°06' E 113°27'0 0.0
2014-Aug-30 00:33N 23°06' E 113°27'0 0.0
2014-Aug-29 20:16N 23°05' E 113°27'0 0.1
2014-Aug-29 14:33N 23°05' E 113°28'6 6.0
2014-Aug-29 13:33N 23°00' E 113°31'39 5.4
2014-Aug-29 06:17N 22°27' E 113°53'1 1.9
2014-Aug-29 05:33N 22°28' E 113°54'0 0.1
2014-Aug-29 04:33N 22°28' E 113°54'0 0.1
2014-Aug-29 03:33N 22°28' E 113°54'0 0.1
2014-Aug-29 02:33N 22°28' E 113°54'1 0.6
2014-Aug-29 01:33N 22°27' E 113°54'1 0.7
2014-Aug-29 00:30N 22°27' E 113°53'0 0.0
2014-Aug-28 23:33N 22°27' E 113°53'0 0.0
2014-Aug-28 22:29N 22°27' E 113°53'0 0.0
2014-Aug-28 21:33N 22°27' E 113°53'0 0.0
2014-Aug-28 20:33N 22°27' E 113°53'0 0.0
2014-Aug-28 19:30N 22°27' E 113°53'2 0.6
2014-Aug-28 16:22N 22°25' E 113°53'37 3.4
2014-Aug-28 05:30N 22°57' E 113°33'5 4.9
2014-Aug-28 04:29N 23°02' E 113°31'4 4.4
2014-Aug-28 03:33N 23°05' E 113°28'2 2.3
2014-Aug-28 02:28N 23°06' E 113°26'0 0.0
2014-Aug-28 01:32N 23°06' E 113°26'0 0.1
2014-Aug-28 00:29N 23°06' E 113°26'0 0.0
2014-Aug-27 23:32N 23°06' E 113°26'0 0.0
2014-Aug-27 22:33N 23°06' E 113°26'0 0.1
2014-Aug-27 21:33N 23°06' E 113°26'0 0.0
2014-Aug-27 20:33N 23°06' E 113°26'0 0.0
2014-Aug-27 19:31N 23°06' E 113°26'0 0.0
2014-Aug-27 18:27N 23°06' E 113°26'0 0.0
2014-Aug-27 17:33N 23°06' E 113°26'0 0.0
2014-Aug-27 16:33N 23°06' E 113°26'0 0.1
2014-Aug-27 15:30N 23°06' E 113°26'0 0.1
2014-Aug-27 14:33N 23°06' E 113°26'0 0.0
2014-Aug-27 13:32N 23°06' E 113°26'0 0.0
2014-Aug-27 12:33N 23°06' E 113°26'0 0.0
2014-Aug-27 11:33N 23°06' E 113°26'0 0.1
2014-Aug-27 10:33N 23°06' E 113°26'0 0.0
2014-Aug-27 09:33N 23°06' E 113°26'1 0.8
2014-Aug-27 08:33N 23°05' E 113°26'0 0.0
2014-Aug-27 07:33N 23°05' E 113°26'0 0.0
2014-Aug-27 06:33N 23°05' E 113°26'0 0.0
2014-Aug-27 05:33N 23°05' E 113°26'0 0.0
2014-Aug-27 04:33N 23°05' E 113°26'0 0.0
2014-Aug-27 03:32N 23°05' E 113°26'0 0.0
2014-Aug-27 02:33N 23°05' E 113°26'0 0.0
2014-Aug-27 01:33N 23°05' E 113°26'0 0.1
2014-Aug-27 00:33N 23°05' E 113°26'0 0.0
2014-Aug-26 23:33N 23°05' E 113°26'0 0.0
2014-Aug-26 22:33N 23°05' E 113°26'0 0.0
2014-Aug-26 21:32N 23°05' E 113°26'0 0.0
2014-Aug-26 20:32N 23°05' E 113°26'0 0.0
2014-Aug-26 19:31N 23°05' E 113°26'0 0.0
2014-Aug-26 18:33N 23°05' E 113°26'0 0.1
2014-Aug-26 17:29N 23°05' E 113°26'0 0.1
2014-Aug-26 16:34N 23°05' E 113°26'5 4.8
2014-Aug-26 15:28N 23°03' E 113°32'0 0.1
2014-Aug-26 10:31N 23°03' E 113°32'0 0.0
2014-Aug-26 09:15N 23°03' E 113°32'1 0.1
2014-Aug-26 01:32N 23°03' E 113°31'0 0.5
2014-Aug-26 00:33N 23°03' E 113°31'0 0.0
2014-Aug-25 23:33N 23°03' E 113°31'0 0.0
2014-Aug-25 22:33N 23°03' E 113°31'0 0.0
2014-Aug-25 21:33N 23°03' E 113°31'0 0.0
2014-Aug-25 20:33N 23°03' E 113°31'0 0.0
2014-Aug-25 19:30N 23°03' E 113°31'0 0.2
2014-Aug-25 18:24N 23°03' E 113°31'0 0.0
2014-Aug-25 17:34N 23°03' E 113°31'0 0.1
2014-Aug-25 14:10N 23°03' E 113°31'5 7.3
2014-Aug-25 13:33N 22°58' E 113°32'37 5.9
2014-Aug-25 07:11N 22°26' E 113°53'22 0.8
2014-Aug-24 03:33N 22°34' E 114°15'0 0.1
2014-Aug-24 02:33N 22°34' E 114°15'0 0.0
2014-Aug-23 20:25N 22°34' E 114°15'0 0.0
2014-Aug-23 19:09N 22°34' E 114°15'17 0.6
2014-Aug-22 14:32N 22°18' E 114°10'  

Dump ship's entire track history